sensor_id;sensor_type;location;lat;lon;timestamp;pressure;altitude;pressure_sealevel;temperature;humidity
7962;BME280;4026;43.652;24.906;2023-11-22T00:00:14;98521.69;;;8.55;100.00
7962;BME280;4026;43.652;24.906;2023-11-22T00:02:40;98523.53;;;8.53;100.00
7962;BME280;4026;43.652;24.906;2023-11-22T00:05:07;98520.28;;;8.51;100.00
7962;BME280;4026;43.652;24.906;2023-11-22T00:07:36;98524.09;;;8.45;100.00
7962;BME280;4026;43.652;24.906;2023-11-22T00:10:04;98518.72;;;8.37;100.00
7962;BME280;4026;43.652;24.906;2023-11-22T00:12:31;98526.28;;;8.38;100.00
7962;BME280;4026;43.652;24.906;2023-11-22T00:15:05;98517.47;;;8.43;100.00
7962;BME280;4026;43.652;24.906;2023-11-22T00:17:32;98523.00;;;8.36;100.00
7962;BME280;4026;43.652;24.906;2023-11-22T00:19:59;98525.34;;;8.39;100.00
7962;BME280;4026;43.652;24.906;2023-11-22T00:22:30;98533.00;;;8.39;100.00
7962;BME280;4026;43.652;24.906;2023-11-22T00:24:57;98531.38;;;8.38;100.00
7962;BME280;4026;43.652;24.906;2023-11-22T00:27:24;98523.94;;;8.35;100.00
7962;BME280;4026;43.652;24.906;2023-11-22T00:29:51;98520.56;;;8.35;100.00
7962;BME280;4026;43.652;24.906;2023-11-22T00:32:20;98521.81;;;8.29;100.00
7962;BME280;4026;43.652;24.906;2023-11-22T00:34:47;98518.34;;;8.30;100.00
7962;BME280;4026;43.652;24.906;2023-11-22T00:37:14;98524.94;;;8.33;100.00
7962;BME280;4026;43.652;24.906;2023-11-22T00:39:41;98528.53;;;8.30;100.00
7962;BME280;4026;43.652;24.906;2023-11-22T00:42:08;98539.16;;;8.24;100.00
7962;BME280;4026;43.652;24.906;2023-11-22T00:44:35;98539.16;;;8.24;100.00
7962;BME280;4026;43.652;24.906;2023-11-22T00:47:03;98525.28;;;8.28;100.00
7962;BME280;4026;43.652;24.906;2023-11-22T00:49:31;98532.22;;;8.26;100.00
7962;BME280;4026;43.652;24.906;2023-11-22T00:51:58;98526.06;;;8.29;100.00
7962;BME280;4026;43.652;24.906;2023-11-22T00:54:25;98525.94;;;8.19;100.00
7962;BME280;4026;43.652;24.906;2023-11-22T00:56:52;98530.31;;;8.17;100.00
7962;BME280;4026;43.652;24.906;2023-11-22T00:59:19;98529.19;;;8.21;100.00
7962;BME280;4026;43.652;24.906;2023-11-22T01:01:46;98525.22;;;8.17;100.00
7962;BME280;4026;43.652;24.906;2023-11-22T01:04:12;98531.63;;;8.23;100.00
7962;BME280;4026;43.652;24.906;2023-11-22T01:06:42;98524.53;;;8.15;100.00
7962;BME280;4026;43.652;24.906;2023-11-22T01:09:08;98529.19;;;8.21;100.00
7962;BME280;4026;43.652;24.906;2023-11-22T01:11:37;98533.25;;;8.24;100.00
7962;BME280;4026;43.652;24.906;2023-11-22T01:14:04;98527.56;;;8.20;100.00
7962;BME280;4026;43.652;24.906;2023-11-22T01:16:31;98539.00;;;8.14;100.00
7962;BME280;4026;43.652;24.906;2023-11-22T01:18:58;98529.41;;;8.18;100.00
7962;BME280;4026;43.652;24.906;2023-11-22T01:21:26;98539.16;;;8.24;100.00
7962;BME280;4026;43.652;24.906;2023-11-22T01:23:54;98539.38;;;8.21;100.00
7962;BME280;4026;43.652;24.906;2023-11-22T01:26:21;98549.78;;;8.18;100.00
7962;BME280;4026;43.652;24.906;2023-11-22T01:28:49;98553.94;;;8.19;100.00
7962;BME280;4026;43.652;24.906;2023-11-22T01:31:16;98549.22;;;8.26;100.00
7962;BME280;4026;43.652;24.906;2023-11-22T01:33:46;98563.69;;;8.25;100.00
7962;BME280;4026;43.652;24.906;2023-11-22T01:36:13;98559.91;;;8.31;100.00
7962;BME280;4026;43.652;24.906;2023-11-22T01:38:41;98560.72;;;8.31;100.00
7962;BME280;4026;43.652;24.906;2023-11-22T01:41:11;98562.56;;;8.29;100.00
7962;BME280;4026;43.652;24.906;2023-11-22T01:43:38;98552.16;;;8.32;100.00
7962;BME280;4026;43.652;24.906;2023-11-22T01:46:07;98557.84;;;8.36;100.00
7962;BME280;4026;43.652;24.906;2023-11-22T01:48:34;98549.06;;;8.40;100.00
7962;BME280;4026;43.652;24.906;2023-11-22T01:51:02;98536.03;;;8.32;100.00
7962;BME280;4026;43.652;24.906;2023-11-22T01:53:30;98536.50;;;8.26;100.00
7962;BME280;4026;43.652;24.906;2023-11-22T01:55:58;98536.50;;;8.26;100.00
7962;BME280;4026;43.652;24.906;2023-11-22T01:58:27;98535.75;;;8.12;100.00
7962;BME280;4026;43.652;24.906;2023-11-22T02:00:54;98533.09;;;8.14;100.00
7962;BME280;4026;43.652;24.906;2023-11-22T02:03:21;98541.00;;;8.22;100.00
7962;BME280;4026;43.652;24.906;2023-11-22T02:05:47;98537.53;;;8.23;100.00
7962;BME280;4026;43.652;24.906;2023-11-22T02:08:14;98536.34;;;8.16;100.00
7962;BME280;4026;43.652;24.906;2023-11-22T02:10:44;98531.03;;;8.19;100.00
7962;BME280;4026;43.652;24.906;2023-11-22T02:13:14;98529.63;;;8.15;100.00
7962;BME280;4026;43.652;24.906;2023-11-22T02:15:42;98522.09;;;8.13;100.00
7962;BME280;4026;43.652;24.906;2023-11-22T02:18:11;98523.13;;;8.11;100.00
7962;BME280;4026;43.652;24.906;2023-11-22T02:20:38;98534.50;;;8.18;100.00
7962;BME280;4026;43.652;24.906;2023-11-22T02:23:09;98524.75;;;8.12;100.00
7962;BME280;4026;43.652;24.906;2023-11-22T02:25:36;98526.38;;;8.13;100.00
7962;BME280;4026;43.652;24.906;2023-11-22T02:28:04;98520.69;;;8.09;100.00
7962;BME280;4026;43.652;24.906;2023-11-22T02:30:31;98507.03;;;8.10;100.00
7962;BME280;4026;43.652;24.906;2023-11-22T02:32:58;98510.59;;;8.08;100.00
7962;BME280;4026;43.652;24.906;2023-11-22T02:35:24;98499.53;;;8.09;100.00
7962;BME280;4026;43.652;24.906;2023-11-22T02:37:52;98512.94;;;8.11;100.00
7962;BME280;4026;43.652;24.906;2023-11-22T02:40:22;98505.50;;;8.08;100.00
7962;BME280;4026;43.652;24.906;2023-11-22T02:42:50;98511.97;;;8.01;100.00
7962;BME280;4026;43.652;24.906;2023-11-22T02:45:19;98518.69;;;8.02;100.00
7962;BME280;4026;43.652;24.906;2023-11-22T02:47:48;98526.03;;;7.93;100.00
7962;BME280;4026;43.652;24.906;2023-11-22T02:50:15;98526.66;;;7.97;100.00
7962;BME280;4026;43.652;24.906;2023-11-22T02:52:43;98528.88;;;8.02;100.00
7962;BME280;4026;43.652;24.906;2023-11-22T02:55:10;98525.19;;;8.06;100.00
7962;BME280;4026;43.652;24.906;2023-11-22T02:57:38;98524.81;;;7.99;100.00
7962;BME280;4026;43.652;24.906;2023-11-22T03:00:06;98517.97;;;8.00;100.00
7962;BME280;4026;43.652;24.906;2023-11-22T03:02:33;98525.28;;;8.04;100.00
7962;BME280;4026;43.652;24.906;2023-11-22T03:05:00;98530.47;;;8.03;100.00
7962;BME280;4026;43.652;24.906;2023-11-22T03:07:29;98523.19;;;7.98;100.00
7962;BME280;4026;43.652;24.906;2023-11-22T03:09:56;98537.88;;;7.94;100.00
7962;BME280;4026;43.652;24.906;2023-11-22T03:12:25;98534.19;;;7.99;100.00
7962;BME280;4026;43.652;24.906;2023-11-22T03:14:54;98538.84;;;8.05;100.00
7962;BME280;4026;43.652;24.906;2023-11-22T03:17:24;98542.53;;;8.01;100.00
7962;BME280;4026;43.652;24.906;2023-11-22T03:19:50;98535.38;;;8.06;100.00
7962;BME280;4026;43.652;24.906;2023-11-22T03:22:17;98531.63;;;7.99;100.00
7962;BME280;4026;43.652;24.906;2023-11-22T03:24:45;98532.66;;;7.96;100.00
7962;BME280;4026;43.652;24.906;2023-11-22T03:27:11;98522.81;;;7.91;100.00
7962;BME280;4026;43.652;24.906;2023-11-22T03:29:38;98528.00;;;7.90;100.00
7962;BME280;4026;43.652;24.906;2023-11-22T03:32:07;98519.34;;;7.92;100.00
7962;BME280;4026;43.652;24.906;2023-11-22T03:34:33;98523.25;;;7.85;100.00
7962;BME280;4026;43.652;24.906;2023-11-22T03:37:00;98519.41;;;7.80;100.00
7962;BME280;4026;43.652;24.906;2023-11-22T03:39:27;98517.66;;;7.80;100.00
7962;BME280;4026;43.652;24.906;2023-11-22T03:41:54;98518.56;;;7.79;100.00
7962;BME280;4026;43.652;24.906;2023-11-22T03:44:20;98520.63;;;7.74;100.00
7962;BME280;4026;43.652;24.906;2023-11-22T03:46:47;98526.53;;;7.75;100.00
7962;BME280;4026;43.652;24.906;2023-11-22T03:49:15;98527.78;;;7.69;100.00
7962;BME280;4026;43.652;24.906;2023-11-22T03:51:42;98529.38;;;7.70;100.00
7962;BME280;4026;43.652;24.906;2023-11-22T03:54:09;98538.16;;;7.66;100.00
7962;BME280;4026;43.652;24.906;2023-11-22T03:56:38;98536.13;;;7.71;100.00
7962;BME280;4026;43.652;24.906;2023-11-22T03:59:05;98546.50;;;7.68;100.00
7962;BME280;4026;43.652;24.906;2023-11-22T04:01:32;98552.19;;;7.71;100.00
7962;BME280;4026;43.652;24.906;2023-11-22T04:03:59;98542.09;;;7.70;100.00
7962;BME280;4026;43.652;24.906;2023-11-22T04:06:27;98548.13;;;7.69;100.00
7962;BME280;4026;43.652;24.906;2023-11-22T04:08:54;98554.81;;;7.70;100.00
7962;BME280;4026;43.652;24.906;2023-11-22T04:11:21;98561.34;;;7.74;100.00
7962;BME280;4026;43.652;24.906;2023-11-22T04:13:48;98560.13;;;7.67;100.00
7962;BME280;4026;43.652;24.906;2023-11-22T04:16:14;98556.69;;;7.68;100.00
7962;BME280;4026;43.652;24.906;2023-11-22T04:18:43;98566.66;;;7.71;100.00
7962;BME280;4026;43.652;24.906;2023-11-22T04:21:10;98574.50;;;7.68;100.00
7962;BME280;4026;43.652;24.906;2023-11-22T04:23:38;98573.88;;;7.64;100.00
7962;BME280;4026;43.652;24.906;2023-11-22T04:26:05;98574.69;;;7.65;100.00
7962;BME280;4026;43.652;24.906;2023-11-22T04:28:32;98579.69;;;7.66;100.00
7962;BME280;4026;43.652;24.906;2023-11-22T04:31:00;98594.13;;;7.66;100.00
7962;BME280;4026;43.652;24.906;2023-11-22T04:33:26;98600.19;;;7.76;100.00
7962;BME280;4026;43.652;24.906;2023-11-22T04:35:54;98615.47;;;7.76;100.00
7962;BME280;4026;43.652;24.906;2023-11-22T04:38:21;98613.44;;;7.81;100.00
7962;BME280;4026;43.652;24.906;2023-11-22T04:40:50;98606.31;;;7.86;100.00
7962;BME280;4026;43.652;24.906;2023-11-22T04:43:16;98598.47;;;7.89;100.00
7962;BME280;4026;43.652;24.906;2023-11-22T04:45:43;98597.31;;;7.93;100.00
7962;BME280;4026;43.652;24.906;2023-11-22T04:48:10;98591.41;;;7.93;100.00
7962;BME280;4026;43.652;24.906;2023-11-22T04:50:37;98595.38;;;7.97;100.00
7962;BME280;4026;43.652;24.906;2023-11-22T04:53:04;98592.22;;;7.93;100.00
7962;BME280;4026;43.652;24.906;2023-11-22T04:55:30;98602.41;;;7.93;100.00
7962;BME280;4026;43.652;24.906;2023-11-22T04:57:59;98602.63;;;7.90;100.00
7962;BME280;4026;43.652;24.906;2023-11-22T05:00:25;98608.50;;;7.91;100.00
7962;BME280;4026;43.652;24.906;2023-11-22T05:02:52;98614.75;;;7.87;100.00
7962;BME280;4026;43.652;24.906;2023-11-22T05:05:19;98624.34;;;7.83;100.00
7962;BME280;4026;43.652;24.906;2023-11-22T05:07:47;98625.53;;;7.90;100.00
7962;BME280;4026;43.652;24.906;2023-11-22T05:10:13;98629.72;;;7.91;100.00
7962;BME280;4026;43.652;24.906;2023-11-22T05:12:42;98635.22;;;7.85;100.00
7962;BME280;4026;43.652;24.906;2023-11-22T05:15:11;98647.84;;;7.87;100.00
7962;BME280;4026;43.652;24.906;2023-11-22T05:17:39;98650.88;;;7.92;100.00
7962;BME280;4026;43.652;24.906;2023-11-22T05:20:07;98649.88;;;7.94;100.00
7962;BME280;4026;43.652;24.906;2023-11-22T05:22:35;98641.31;;;7.96;100.00
7962;BME280;4026;43.652;24.906;2023-11-22T05:25:02;98645.38;;;7.98;100.00
7962;BME280;4026;43.652;24.906;2023-11-22T05:27:29;98648.66;;;7.87;100.00
7962;BME280;4026;43.652;24.906;2023-11-22T05:29:58;98651.09;;;7.89;100.00
7962;BME280;4026;43.652;24.906;2023-11-22T05:32:27;98666.53;;;7.99;100.00
7962;BME280;4026;43.652;24.906;2023-11-22T05:34:54;98664.31;;;7.94;100.00
7962;BME280;4026;43.652;24.906;2023-11-22T05:37:20;98659.41;;;7.91;100.00
7962;BME280;4026;43.652;24.906;2023-11-22T05:39:47;98659.34;;;7.92;100.00
7962;BME280;4026;43.652;24.906;2023-11-22T05:42:14;98662.84;;;8.03;100.00
7962;BME280;4026;43.652;24.906;2023-11-22T05:44:41;98677.88;;;7.94;100.00
7962;BME280;4026;43.652;24.906;2023-11-22T05:47:07;98676.94;;;7.96;100.00
7962;BME280;4026;43.652;24.906;2023-11-22T05:49:36;98685.72;;;7.91;100.00
7962;BME280;4026;43.652;24.906;2023-11-22T05:52:03;98681.53;;;7.90;100.00
7962;BME280;4026;43.652;24.906;2023-11-22T05:54:30;98688.47;;;7.88;100.00
7962;BME280;4026;43.652;24.906;2023-11-22T05:56:57;98694.44;;;7.87;100.00
7962;BME280;4026;43.652;24.906;2023-11-22T05:59:24;98689.66;;;7.96;100.00
7962;BME280;4026;43.652;24.906;2023-11-22T06:01:50;98699.34;;;7.90;100.00
7962;BME280;4026;43.652;24.906;2023-11-22T06:04:17;98713.97;;;8.00;100.00
7962;BME280;4026;43.652;24.906;2023-11-22T06:06:45;98720.41;;;7.92;100.00
7962;BME280;4026;43.652;24.906;2023-11-22T06:09:13;98727.53;;;7.87;100.00
7962;BME280;4026;43.652;24.906;2023-11-22T06:11:40;98723.91;;;7.91;100.00
7962;BME280;4026;43.652;24.906;2023-11-22T06:14:07;98728.97;;;7.79;100.00
7962;BME280;4026;43.652;24.906;2023-11-22T06:16:34;98735.59;;;7.81;100.00
7962;BME280;4026;43.652;24.906;2023-11-22T06:19:01;98733.75;;;7.83;100.00
7962;BME280;4026;43.652;24.906;2023-11-22T06:21:27;98739.28;;;7.77;100.00
7962;BME280;4026;43.652;24.906;2023-11-22T06:23:56;98744.34;;;7.77;100.00
7962;BME280;4026;43.652;24.906;2023-11-22T06:26:23;98751.88;;;7.79;100.00
7962;BME280;4026;43.652;24.906;2023-11-22T06:28:50;98752.47;;;7.69;100.00
7962;BME280;4026;43.652;24.906;2023-11-22T06:31:17;98752.47;;;7.82;100.00
7962;BME280;4026;43.652;24.906;2023-11-22T06:33:44;98752.69;;;7.79;100.00
7962;BME280;4026;43.652;24.906;2023-11-22T06:36:11;98753.13;;;7.86;100.00
7962;BME280;4026;43.652;24.906;2023-11-22T06:38:39;98754.13;;;7.83;100.00
7962;BME280;4026;43.652;24.906;2023-11-22T06:41:08;98747.81;;;7.76;100.00
7962;BME280;4026;43.652;24.906;2023-11-22T06:43:34;98754.84;;;7.85;100.00
7962;BME280;4026;43.652;24.906;2023-11-22T06:46:01;98762.16;;;7.77;100.00
7962;BME280;4026;43.652;24.906;2023-11-22T06:48:31;98771.13;;;7.83;100.00
7962;BME280;4026;43.652;24.906;2023-11-22T06:50:59;98788.94;;;7.83;100.00
7962;BME280;4026;43.652;24.906;2023-11-22T06:53:26;98787.94;;;7.85;100.00
7962;BME280;4026;43.652;24.906;2023-11-22T06:55:53;98787.72;;;7.88;100.00
7962;BME280;4026;43.652;24.906;2023-11-22T06:58:21;98800.75;;;7.97;100.00
7962;BME280;4026;43.652;24.906;2023-11-22T07:00:48;98798.72;;;8.02;100.00
7962;BME280;4026;43.652;24.906;2023-11-22T07:03:15;98795.38;;;8.01;100.00
7962;BME280;4026;43.652;24.906;2023-11-22T07:05:42;98796.91;;;8.04;100.00
7962;BME280;4026;43.652;24.906;2023-11-22T07:08:09;98795.44;;;8.00;100.00
7962;BME280;4026;43.652;24.906;2023-11-22T07:10:36;98801.25;;;8.02;100.00
7962;BME280;4026;43.652;24.906;2023-11-22T07:13:03;98810.25;;;7.94;100.00
7962;BME280;4026;43.652;24.906;2023-11-22T07:15:31;98817.78;;;8.09;100.00
7962;BME280;4026;43.652;24.906;2023-11-22T07:17:58;98828.66;;;8.11;100.00
7962;BME280;4026;43.652;24.906;2023-11-22T07:20:25;98827.66;;;8.13;100.00
7962;BME280;4026;43.652;24.906;2023-11-22T07:22:52;98822.88;;;8.09;100.00
7962;BME280;4026;43.652;24.906;2023-11-22T07:25:23;98822.25;;;8.18;100.00
7962;BME280;4026;43.652;24.906;2023-11-22T07:27:51;98828.97;;;8.19;100.00
7962;BME280;4026;43.652;24.906;2023-11-22T07:30:18;98828.25;;;8.17;100.00
7962;BME280;4026;43.652;24.906;2023-11-22T07:32:49;98839.06;;;8.21;100.00
7962;BME280;4026;43.652;24.906;2023-11-22T07:35:17;98849.13;;;8.22;100.00
7962;BME280;4026;43.652;24.906;2023-11-22T07:37:46;98849.25;;;8.21;100.00
7962;BME280;4026;43.652;24.906;2023-11-22T07:40:14;98850.97;;;8.33;100.00
7962;BME280;4026;43.652;24.906;2023-11-22T07:42:41;98850.25;;;8.31;100.00
7962;BME280;4026;43.652;24.906;2023-11-22T07:45:09;98855.75;;;8.37;100.00
7962;BME280;4026;43.652;24.906;2023-11-22T07:47:37;98861.38;;;8.43;100.00
7962;BME280;4026;43.652;24.906;2023-11-22T07:50:08;98862.53;;;8.38;100.00
7962;BME280;4026;43.652;24.906;2023-11-22T07:52:36;98877.19;;;8.48;100.00
7962;BME280;4026;43.652;24.906;2023-11-22T07:55:05;98873.31;;;8.55;100.00
7962;BME280;4026;43.652;24.906;2023-11-22T07:57:33;98875.03;;;8.54;100.00
7962;BME280;4026;43.652;24.906;2023-11-22T08:00:00;98880.25;;;8.53;100.00
7962;BME280;4026;43.652;24.906;2023-11-22T08:02:33;98887.47;;;8.46;100.00
7962;BME280;4026;43.652;24.906;2023-11-22T08:04:59;98889.94;;;8.48;100.00
7962;BME280;4026;43.652;24.906;2023-11-22T08:07:30;98896.75;;;8.60;100.00
7962;BME280;4026;43.652;24.906;2023-11-22T08:09:58;98890.44;;;8.53;100.00
7962;BME280;4026;43.652;24.906;2023-11-22T08:12:34;98891.13;;;8.55;100.00
7962;BME280;4026;43.652;24.906;2023-11-22T08:15:01;98893.50;;;8.45;100.00
7962;BME280;4026;43.652;24.906;2023-11-22T08:17:28;98892.69;;;8.45;100.00
7962;BME280;4026;43.652;24.906;2023-11-22T08:19:58;98895.44;;;8.42;100.00
7962;BME280;4026;43.652;24.906;2023-11-22T08:22:25;98902.47;;;8.51;100.00
7962;BME280;4026;43.652;24.906;2023-11-22T08:24:55;98903.06;;;8.42;100.00
7962;BME280;4026;43.652;24.906;2023-11-22T08:27:23;98906.91;;;8.34;100.00
7962;BME280;4026;43.652;24.906;2023-11-22T08:29:49;98912.63;;;8.38;100.00
7962;BME280;4026;43.652;24.906;2023-11-22T08:32:16;98911.63;;;8.41;100.00
7962;BME280;4026;43.652;24.906;2023-11-22T08:34:47;98913.47;;;8.38;100.00
7962;BME280;4026;43.652;24.906;2023-11-22T08:37:14;98902.25;;;8.54;100.00
7962;BME280;4026;43.652;24.906;2023-11-22T08:39:41;98916.13;;;8.50;100.00
7962;BME280;4026;43.652;24.906;2023-11-22T08:42:10;98910.16;;;8.36;100.00
7962;BME280;4026;43.652;24.906;2023-11-22T08:44:36;98904.69;;;8.43;100.00
7962;BME280;4026;43.652;24.906;2023-11-22T08:47:04;98897.88;;;8.43;100.00
7962;BME280;4026;43.652;24.906;2023-11-22T08:49:31;98901.72;;;8.36;100.00
7962;BME280;4026;43.652;24.906;2023-11-22T08:51:57;98894.88;;;8.36;100.00
7962;BME280;4026;43.652;24.906;2023-11-22T08:54:24;98893.09;;;8.38;100.00
7962;BME280;4026;43.652;24.906;2023-11-22T08:56:54;98877.81;;;8.38;100.00
7962;BME280;4026;43.652;24.906;2023-11-22T08:59:24;98873.78;;;8.34;100.00
7962;BME280;4026;43.652;24.906;2023-11-22T09:01:51;98871.25;;;8.34;100.00
7962;BME280;4026;43.652;24.906;2023-11-22T09:04:17;98870.44;;;8.34;100.00
7962;BME280;4026;43.652;24.906;2023-11-22T09:06:45;98869.81;;;8.30;100.00
7962;BME280;4026;43.652;24.906;2023-11-22T09:09:12;98881.34;;;8.23;100.00
7962;BME280;4026;43.652;24.906;2023-11-22T09:11:41;98880.63;;;8.21;100.00
7962;BME280;4026;43.652;24.906;2023-11-22T09:14:08;98894.25;;;8.20;100.00
7962;BME280;4026;43.652;24.906;2023-11-22T09:16:37;98893.88;;;8.26;100.00
7962;BME280;4026;43.652;24.906;2023-11-22T09:19:05;98885.09;;;8.30;100.00
7962;BME280;4026;43.652;24.906;2023-11-22T09:21:33;98891.81;;;8.31;100.00
7962;BME280;4026;43.652;24.906;2023-11-22T09:24:00;98893.69;;;8.29;100.00
7962;BME280;4026;43.652;24.906;2023-11-22T09:26:27;98902.41;;;8.25;100.00
7962;BME280;4026;43.652;24.906;2023-11-22T09:28:55;98893.03;;;8.26;100.00
7962;BME280;4026;43.652;24.906;2023-11-22T09:31:21;98896.31;;;8.28;100.00
7962;BME280;4026;43.652;24.906;2023-11-22T09:33:50;98893.47;;;8.32;100.00
7962;BME280;4026;43.652;24.906;2023-11-22T09:36:17;98889.06;;;8.34;100.00
7962;BME280;4026;43.652;24.906;2023-11-22T09:38:44;98887.53;;;8.32;100.00
7962;BME280;4026;43.652;24.906;2023-11-22T09:41:12;98887.16;;;8.38;100.00
7962;BME280;4026;43.652;24.906;2023-11-22T09:43:41;98892.47;;;8.48;100.00
7962;BME280;4026;43.652;24.906;2023-11-22T09:46:09;98892.19;;;8.52;100.00
7962;BME280;4026;43.652;24.906;2023-11-22T09:48:39;98894.88;;;8.36;100.00
7962;BME280;4026;43.652;24.906;2023-11-22T09:51:18;98911.63;;;8.41;100.00
7962;BME280;4026;43.652;24.906;2023-11-22T09:53:53;98915.09;;;8.39;100.00
7962;BME280;4026;43.652;24.906;2023-11-22T09:56:22;98913.06;;;8.45;100.00
7962;BME280;4026;43.652;24.906;2023-11-22T09:58:52;98929.44;;;8.41;100.00
7962;BME280;4026;43.652;24.906;2023-11-22T10:01:21;98930.38;;;8.39;100.00
7962;BME280;4026;43.652;24.906;2023-11-22T10:03:49;98924.25;;;8.55;100.00
7962;BME280;4026;43.652;24.906;2023-11-22T10:06:17;98940.16;;;8.46;100.00
7962;BME280;4026;43.652;24.906;2023-11-22T10:08:44;98930.19;;;8.43;100.00
7962;BME280;4026;43.652;24.906;2023-11-22T10:11:15;98941.19;;;8.43;100.00
7962;BME280;4026;43.652;24.906;2023-11-22T10:13:43;98948.31;;;8.51;100.00
7962;BME280;4026;43.652;24.906;2023-11-22T10:16:12;98947.72;;;8.47;100.00
7962;BME280;4026;43.652;24.906;2023-11-22T10:18:42;98950.97;;;8.49;100.00
7962;BME280;4026;43.652;24.906;2023-11-22T10:21:24;98951.69;;;8.51;100.00
7962;BME280;4026;43.652;24.906;2023-11-22T10:23:53;98944.28;;;8.61;100.00
7962;BME280;4026;43.652;24.906;2023-11-22T10:26:22;98938.97;;;8.64;100.00
7962;BME280;4026;43.652;24.906;2023-11-22T10:28:50;98932.31;;;8.74;100.00
7962;BME280;4026;43.652;24.906;2023-11-22T10:31:18;98931.19;;;8.66;100.00
7962;BME280;4026;43.652;24.906;2023-11-22T10:33:45;98932.66;;;8.70;100.00
7962;BME280;4026;43.652;24.906;2023-11-22T10:36:13;98934.47;;;8.68;100.00
7962;BME280;4026;43.652;24.906;2023-11-22T10:38:45;98937.72;;;8.82;100.00
7962;BME280;4026;43.652;24.906;2023-11-22T10:41:13;98940.59;;;8.65;100.00
7962;BME280;4026;43.652;24.906;2023-11-22T10:43:40;98947.09;;;8.69;100.00
7962;BME280;4026;43.652;24.906;2023-11-22T10:46:08;98952.63;;;8.76;100.00
7962;BME280;4026;43.652;24.906;2023-11-22T10:48:35;98950.38;;;8.71;100.00
7962;BME280;4026;43.652;24.906;2023-11-22T10:51:03;98963.03;;;8.73;100.00
7962;BME280;4026;43.652;24.906;2023-11-22T10:53:32;98970.34;;;8.77;100.00
7962;BME280;4026;43.652;24.906;2023-11-22T10:56:05;98964.72;;;8.72;100.00
7962;BME280;4026;43.652;24.906;2023-11-22T10:58:42;98964.66;;;8.74;100.00
7962;BME280;4026;43.652;24.906;2023-11-22T11:01:15;98971.06;;;8.67;100.00
7962;BME280;4026;43.652;24.906;2023-11-22T11:03:46;98966.78;;;8.67;100.00
7962;BME280;4026;43.652;24.906;2023-11-22T11:06:19;98974.94;;;8.72;100.00
7962;BME280;4026;43.652;24.906;2023-11-22T11:08:48;98964.25;;;8.67;100.00
7962;BME280;4026;43.652;24.906;2023-11-22T11:11:17;98967.28;;;8.72;100.00
7962;BME280;4026;43.652;24.906;2023-11-22T11:13:45;98965.06;;;8.68;100.00
7962;BME280;4026;43.652;24.906;2023-11-22T11:16:13;98968.72;;;8.76;100.00
7962;BME280;4026;43.652;24.906;2023-11-22T11:18:41;98968.94;;;8.73;100.00
7962;BME280;4026;43.652;24.906;2023-11-22T11:21:09;98971.97;;;8.78;100.00
7962;BME280;4026;43.652;24.906;2023-11-22T11:23:39;98976.66;;;8.72;100.00
7962;BME280;4026;43.652;24.906;2023-11-22T11:26:13;98977.06;;;8.78;100.00
7962;BME280;4026;43.652;24.906;2023-11-22T11:28:44;98973.63;;;8.79;100.00
7962;BME280;4026;43.652;24.906;2023-11-22T11:31:11;98978.19;;;8.74;100.00
7962;BME280;4026;43.652;24.906;2023-11-22T11:33:53;98980.34;;;8.68;100.00
7962;BME280;4026;43.652;24.906;2023-11-22T11:36:23;98976.88;;;8.81;100.00
7962;BME280;4026;43.652;24.906;2023-11-22T11:38:51;98984.03;;;8.76;100.00
7962;BME280;4026;43.652;24.906;2023-11-22T11:41:18;98989.31;;;8.73;100.00
7962;BME280;4026;43.652;24.906;2023-11-22T11:43:48;98987.47;;;8.75;100.00
7962;BME280;4026;43.652;24.906;2023-11-22T11:46:16;98985.84;;;8.74;100.00
7962;BME280;4026;43.652;24.906;2023-11-22T11:48:43;98972.38;;;8.72;100.00
7962;BME280;4026;43.652;24.906;2023-11-22T11:51:14;98976.25;;;8.78;100.00
7962;BME280;4026;43.652;24.906;2023-11-22T11:53:41;98982.28;;;8.77;100.00
7962;BME280;4026;43.652;24.906;2023-11-22T11:56:09;98978.13;;;8.76;100.00
7962;BME280;4026;43.652;24.906;2023-11-22T11:58:37;98984.53;;;8.81;100.00
7962;BME280;4026;43.652;24.906;2023-11-22T12:01:06;98990.94;;;8.74;100.00
7962;BME280;4026;43.652;24.906;2023-11-22T12:03:33;98990.94;;;8.74;100.00
7962;BME280;4026;43.652;24.906;2023-11-22T12:06:00;98993.41;;;8.76;100.00
7962;BME280;4026;43.652;24.906;2023-11-22T12:08:27;98990.66;;;8.79;100.00
7962;BME280;4026;43.652;24.906;2023-11-22T12:10:56;99001.88;;;8.76;100.00
7962;BME280;4026;43.652;24.906;2023-11-22T12:13:24;99003.16;;;8.69;100.00
7962;BME280;4026;43.652;24.906;2023-11-22T12:15:51;99001.88;;;8.76;100.00
7962;BME280;4026;43.652;24.906;2023-11-22T12:18:21;99010.41;;;8.75;100.00
7962;BME280;4026;43.652;24.906;2023-11-22T12:20:55;99001.34;;;8.71;100.00
7962;BME280;4026;43.652;24.906;2023-11-22T12:23:23;98997.19;;;8.70;100.00
7962;BME280;4026;43.652;24.906;2023-11-22T12:25:55;99001.34;;;8.71;100.00
7962;BME280;4026;43.652;24.906;2023-11-22T12:28:23;98997.47;;;8.66;100.00
7962;BME280;4026;43.652;24.906;2023-11-22T12:30:50;99011.75;;;8.68;100.00
7962;BME280;4026;43.652;24.906;2023-11-22T12:33:17;99009.28;;;8.67;100.00
7962;BME280;4026;43.652;24.906;2023-11-22T12:35:47;99011.34;;;8.61;100.00
7962;BME280;4026;43.652;24.906;2023-11-22T12:38:14;99019.06;;;8.60;100.00
7962;BME280;4026;43.652;24.906;2023-11-22T12:40:45;99020.53;;;8.64;100.00
7962;BME280;4026;43.652;24.906;2023-11-22T12:43:13;99025.09;;;8.59;100.00
7962;BME280;4026;43.652;24.906;2023-11-22T12:45:41;99030.19;;;8.59;100.00
7962;BME280;4026;43.652;24.906;2023-11-22T12:48:20;99042.81;;;8.60;100.00
7962;BME280;4026;43.652;24.906;2023-11-22T12:50:50;99042.81;;;8.60;100.00
7962;BME280;4026;43.652;24.906;2023-11-22T12:53:18;99041.09;;;8.61;100.00
7962;BME280;4026;43.652;24.906;2023-11-22T12:55:48;99050.56;;;8.59;100.00
7962;BME280;4026;43.652;24.906;2023-11-22T12:58:15;99048.22;;;8.56;100.00
7962;BME280;4026;43.652;24.906;2023-11-22T13:00:44;99039.25;;;8.63;100.00
7962;BME280;4026;43.652;24.906;2023-11-22T13:03:12;99041.47;;;8.55;100.00
7962;BME280;4026;43.652;24.906;2023-11-22T13:05:39;99036.19;;;8.58;100.00
7962;BME280;4026;43.652;24.906;2023-11-22T13:08:10;99041.69;;;8.52;100.00
7962;BME280;4026;43.652;24.906;2023-11-22T13:10:38;99048.63;;;8.50;100.00
7962;BME280;4026;43.652;24.906;2023-11-22T13:13:05;99070.09;;;8.46;100.00